sensor_id;sensor_type;location;lat;lon;timestamp;temperature;humidity
7704;DHT22;3894;49.700;10.770;2023-09-08T00:01:25;17.70;99.90
7704;DHT22;3894;49.700;10.770;2023-09-08T00:03:52;17.70;99.90
7704;DHT22;3894;49.700;10.770;2023-09-08T00:06:20;17.60;99.90
7704;DHT22;3894;49.700;10.770;2023-09-08T00:08:49;17.60;99.90
7704;DHT22;3894;49.700;10.770;2023-09-08T00:11:26;17.60;99.90
7704;DHT22;3894;49.700;10.770;2023-09-08T00:13:57;17.50;99.90
7704;DHT22;3894;49.700;10.770;2023-09-08T00:16:33;17.50;99.90
7704;DHT22;3894;49.700;10.770;2023-09-08T00:18:59;17.50;99.90
7704;DHT22;3894;49.700;10.770;2023-09-08T00:21:27;17.40;99.90
7704;DHT22;3894;49.700;10.770;2023-09-08T00:23:56;17.40;99.90
7704;DHT22;3894;49.700;10.770;2023-09-08T00:26:29;17.40;99.90
7704;DHT22;3894;49.700;10.770;2023-09-08T00:28:57;17.30;99.90
7704;DHT22;3894;49.700;10.770;2023-09-08T00:31:28;17.30;99.90
7704;DHT22;3894;49.700;10.770;2023-09-08T00:34:00;17.30;99.90
7704;DHT22;3894;49.700;10.770;2023-09-08T00:36:28;17.20;99.90
7704;DHT22;3894;49.700;10.770;2023-09-08T00:38:56;17.20;99.90
7704;DHT22;3894;49.700;10.770;2023-09-08T00:41:28;17.20;99.90
7704;DHT22;3894;49.700;10.770;2023-09-08T00:44:00;17.20;99.90
7704;DHT22;3894;49.700;10.770;2023-09-08T00:46:31;17.20;99.90
7704;DHT22;3894;49.700;10.770;2023-09-08T00:48:57;17.10;99.90
7704;DHT22;3894;49.700;10.770;2023-09-08T00:51:28;17.10;99.90
7704;DHT22;3894;49.700;10.770;2023-09-08T00:53:54;17.10;99.90
7704;DHT22;3894;49.700;10.770;2023-09-08T00:56:23;17.10;99.90
7704;DHT22;3894;49.700;10.770;2023-09-08T00:58:49;17.00;99.90
7704;DHT22;3894;49.700;10.770;2023-09-08T01:01:15;17.00;99.90
7704;DHT22;3894;49.700;10.770;2023-09-08T01:03:42;16.90;99.90
7704;DHT22;3894;49.700;10.770;2023-09-08T01:06:09;16.90;99.90
7704;DHT22;3894;49.700;10.770;2023-09-08T01:08:43;16.90;99.90
7704;DHT22;3894;49.700;10.770;2023-09-08T01:11:12;16.90;99.90
7704;DHT22;3894;49.700;10.770;2023-09-08T01:13:43;16.90;99.90
7704;DHT22;3894;49.700;10.770;2023-09-08T01:16:12;16.80;99.90
7704;DHT22;3894;49.700;10.770;2023-09-08T01:18:50;16.80;99.90
7704;DHT22;3894;49.700;10.770;2023-09-08T01:27:14;16.60;99.90
7704;DHT22;3894;49.700;10.770;2023-09-08T01:29:59;16.60;99.90
7704;DHT22;3894;49.700;10.770;2023-09-08T01:32:28;16.60;99.90
7704;DHT22;3894;49.700;10.770;2023-09-08T01:34:54;16.60;99.90
7704;DHT22;3894;49.700;10.770;2023-09-08T01:37:26;16.50;99.90
7704;DHT22;3894;49.700;10.770;2023-09-08T01:39:52;16.50;99.90
7704;DHT22;3894;49.700;10.770;2023-09-08T01:42:23;16.40;99.90
7704;DHT22;3894;49.700;10.770;2023-09-08T01:44:49;16.40;99.90
7704;DHT22;3894;49.700;10.770;2023-09-08T01:47:16;16.40;99.90
7704;DHT22;3894;49.700;10.770;2023-09-08T01:49:42;16.30;99.90
7704;DHT22;3894;49.700;10.770;2023-09-08T01:52:10;16.30;99.90
7704;DHT22;3894;49.700;10.770;2023-09-08T01:54:36;16.30;99.90
7704;DHT22;3894;49.700;10.770;2023-09-08T01:57:01;16.20;99.90
7704;DHT22;3894;49.700;10.770;2023-09-08T01:59:30;16.20;99.90
7704;DHT22;3894;49.700;10.770;2023-09-08T02:01:59;16.10;99.90
7704;DHT22;3894;49.700;10.770;2023-09-08T02:04:25;16.10;99.90
7704;DHT22;3894;49.700;10.770;2023-09-08T02:06:50;16.20;99.90
7704;DHT22;3894;49.700;10.770;2023-09-08T02:09:19;16.20;99.90
7704;DHT22;3894;49.700;10.770;2023-09-08T02:11:45;16.20;99.90
7704;DHT22;3894;49.700;10.770;2023-09-08T02:14:11;16.10;99.90
7704;DHT22;3894;49.700;10.770;2023-09-08T02:16:39;16.10;99.90
7704;DHT22;3894;49.700;10.770;2023-09-08T02:19:05;16.10;99.90
7704;DHT22;3894;49.700;10.770;2023-09-08T02:21:39;16.10;99.90
7704;DHT22;3894;49.700;10.770;2023-09-08T02:24:05;16.00;99.90
7704;DHT22;3894;49.700;10.770;2023-09-08T02:26:33;16.00;99.90
7704;DHT22;3894;49.700;10.770;2023-09-08T02:29:02;15.90;99.90
7704;DHT22;3894;49.700;10.770;2023-09-08T02:31:36;15.80;99.90
7704;DHT22;3894;49.700;10.770;2023-09-08T02:34:01;15.80;99.90
7704;DHT22;3894;49.700;10.770;2023-09-08T02:36:34;15.80;99.90
7704;DHT22;3894;49.700;10.770;2023-09-08T02:38:59;15.80;99.90
7704;DHT22;3894;49.700;10.770;2023-09-08T02:41:34;15.70;99.90
7704;DHT22;3894;49.700;10.770;2023-09-08T02:44:00;15.70;99.90
7704;DHT22;3894;49.700;10.770;2023-09-08T02:46:25;15.60;99.90
7704;DHT22;3894;49.700;10.770;2023-09-08T02:48:53;15.60;99.90
7704;DHT22;3894;49.700;10.770;2023-09-08T02:51:19;15.60;99.90
7704;DHT22;3894;49.700;10.770;2023-09-08T02:53:45;15.60;99.90
7704;DHT22;3894;49.700;10.770;2023-09-08T02:56:10;15.50;99.90
7704;DHT22;3894;49.700;10.770;2023-09-08T02:58:36;15.40;99.90
7704;DHT22;3894;49.700;10.770;2023-09-08T03:01:14;15.30;99.90
7704;DHT22;3894;49.700;10.770;2023-09-08T03:03:42;15.30;99.90
7704;DHT22;3894;49.700;10.770;2023-09-08T03:06:13;15.20;99.90
7704;DHT22;3894;49.700;10.770;2023-09-08T03:08:38;15.20;99.90
7704;DHT22;3894;49.700;10.770;2023-09-08T03:11:07;15.20;99.90
7704;DHT22;3894;49.700;10.770;2023-09-08T03:13:35;15.20;99.90
7704;DHT22;3894;49.700;10.770;2023-09-08T03:16:10;15.20;99.90
7704;DHT22;3894;49.700;10.770;2023-09-08T03:18:37;15.20;99.90
7704;DHT22;3894;49.700;10.770;2023-09-08T03:21:13;15.20;99.90
7704;DHT22;3894;49.700;10.770;2023-09-08T03:23:40;15.20;99.90
7704;DHT22;3894;49.700;10.770;2023-09-08T03:26:13;15.20;99.90
7704;DHT22;3894;49.700;10.770;2023-09-08T03:28:39;15.10;99.90
7704;DHT22;3894;49.700;10.770;2023-09-08T03:31:10;15.10;99.90
7704;DHT22;3894;49.700;10.770;2023-09-08T03:33:39;15.10;99.90
7704;DHT22;3894;49.700;10.770;2023-09-08T03:36:10;15.10;99.90
7704;DHT22;3894;49.700;10.770;2023-09-08T03:38:37;15.10;99.90
7704;DHT22;3894;49.700;10.770;2023-09-08T03:41:08;15.10;99.90
7704;DHT22;3894;49.700;10.770;2023-09-08T03:43:36;15.10;99.90
7704;DHT22;3894;49.700;10.770;2023-09-08T03:46:05;15.10;99.90
7704;DHT22;3894;49.700;10.770;2023-09-08T03:48:39;15.10;99.90
7704;DHT22;3894;49.700;10.770;2023-09-08T03:51:10;15.00;99.90
7704;DHT22;3894;49.700;10.770;2023-09-08T03:53:35;15.00;99.90
7704;DHT22;3894;49.700;10.770;2023-09-08T03:56:09;14.90;99.90
7704;DHT22;3894;49.700;10.770;2023-09-08T03:58:34;14.80;99.90
7704;DHT22;3894;49.700;10.770;2023-09-08T04:01:13;14.70;99.90
7704;DHT22;3894;49.700;10.770;2023-09-08T04:03:48;14.60;99.90
7704;DHT22;3894;49.700;10.770;2023-09-08T04:06:13;14.60;99.90
7704;DHT22;3894;49.700;10.770;2023-09-08T04:08:39;14.60;99.90
7704;DHT22;3894;49.700;10.770;2023-09-08T04:11:05;14.60;99.90
7704;DHT22;3894;49.700;10.770;2023-09-08T04:13:36;14.60;99.90
7704;DHT22;3894;49.700;10.770;2023-09-08T04:16:01;14.60;99.90
7704;DHT22;3894;49.700;10.770;2023-09-08T04:18:27;14.50;99.90
7704;DHT22;3894;49.700;10.770;2023-09-08T04:20:55;14.50;99.90
7704;DHT22;3894;49.700;10.770;2023-09-08T04:23:23;14.50;99.90
7704;DHT22;3894;49.700;10.770;2023-09-08T04:25:49;14.50;99.90
7704;DHT22;3894;49.700;10.770;2023-09-08T04:28:15;14.60;99.90
7704;DHT22;3894;49.700;10.770;2023-09-08T04:30:45;14.60;99.90
7704;DHT22;3894;49.700;10.770;2023-09-08T04:33:16;14.50;99.90
7704;DHT22;3894;49.700;10.770;2023-09-08T04:35:44;14.50;99.90
7704;DHT22;3894;49.700;10.770;2023-09-08T04:38:13;14.40;99.90
7704;DHT22;3894;49.700;10.770;2023-09-08T04:40:44;14.30;99.90
7704;DHT22;3894;49.700;10.770;2023-09-08T04:43:12;14.30;99.90
7704;DHT22;3894;49.700;10.770;2023-09-08T04:45:43;14.20;99.90
7704;DHT22;3894;49.700;10.770;2023-09-08T04:48:18;14.20;99.90
7704;DHT22;3894;49.700;10.770;2023-09-08T04:50:49;14.20;99.90
7704;DHT22;3894;49.700;10.770;2023-09-08T04:53:34;14.30;99.90
7704;DHT22;3894;49.700;10.770;2023-09-08T04:56:04;14.30;99.90
7704;DHT22;3894;49.700;10.770;2023-09-08T04:58:35;14.30;99.90
7704;DHT22;3894;49.700;10.770;2023-09-08T05:01:04;14.30;99.90
7704;DHT22;3894;49.700;10.770;2023-09-08T05:03:33;14.30;99.90
7704;DHT22;3894;49.700;10.770;2023-09-08T05:06:01;14.30;99.90
7704;DHT22;3894;49.700;10.770;2023-09-08T05:08:27;14.30;99.90
7704;DHT22;3894;49.700;10.770;2023-09-08T05:10:56;14.30;99.90
7704;DHT22;3894;49.700;10.770;2023-09-08T05:13:24;14.30;99.90
7704;DHT22;3894;49.700;10.770;2023-09-08T05:15:52;14.30;99.90
7704;DHT22;3894;49.700;10.770;2023-09-08T05:18:25;14.40;99.90
7704;DHT22;3894;49.700;10.770;2023-09-08T05:21:01;14.40;99.90
7704;DHT22;3894;49.700;10.770;2023-09-08T05:23:27;14.40;99.90
7704;DHT22;3894;49.700;10.770;2023-09-08T05:25:56;14.30;99.90
7704;DHT22;3894;49.700;10.770;2023-09-08T05:28:22;14.30;99.90
7704;DHT22;3894;49.700;10.770;2023-09-08T05:30:50;14.20;99.90
7704;DHT22;3894;49.700;10.770;2023-09-08T05:33:19;14.20;99.90
7704;DHT22;3894;49.700;10.770;2023-09-08T05:35:45;14.30;99.90
7704;DHT22;3894;49.700;10.770;2023-09-08T05:38:14;14.30;99.90
7704;DHT22;3894;49.700;10.770;2023-09-08T05:40:40;14.40;99.90
7704;DHT22;3894;49.700;10.770;2023-09-08T05:43:08;14.40;99.90
7704;DHT22;3894;49.700;10.770;2023-09-08T05:45:36;14.50;99.90
7704;DHT22;3894;49.700;10.770;2023-09-08T05:48:02;14.60;99.90
7704;DHT22;3894;49.700;10.770;2023-09-08T05:50:28;14.60;99.90
7704;DHT22;3894;49.700;10.770;2023-09-08T05:52:53;14.70;99.90
7704;DHT22;3894;49.700;10.770;2023-09-08T05:55:26;14.80;99.90
7704;DHT22;3894;49.700;10.770;2023-09-08T05:57:55;14.80;99.90
7704;DHT22;3894;49.700;10.770;2023-09-08T06:00:21;15.00;99.90
7704;DHT22;3894;49.700;10.770;2023-09-08T06:02:53;15.10;99.90
7704;DHT22;3894;49.700;10.770;2023-09-08T06:05:19;15.30;99.90
7704;DHT22;3894;49.700;10.770;2023-09-08T06:07:44;15.40;99.90
7704;DHT22;3894;49.700;10.770;2023-09-08T06:10:10;15.60;99.90
7704;DHT22;3894;49.700;10.770;2023-09-08T06:12:41;16.00;99.90
7704;DHT22;3894;49.700;10.770;2023-09-08T06:15:08;16.60;99.90
7704;DHT22;3894;49.700;10.770;2023-09-08T06:17:34;16.90;99.90
7704;DHT22;3894;49.700;10.770;2023-09-08T06:20:03;17.10;99.90
7704;DHT22;3894;49.700;10.770;2023-09-08T06:22:29;17.00;99.90
7704;DHT22;3894;49.700;10.770;2023-09-08T06:24:57;17.00;99.90
7704;DHT22;3894;49.700;10.770;2023-09-08T06:27:22;17.10;99.90
7704;DHT22;3894;49.700;10.770;2023-09-08T06:29:48;17.30;99.90
7704;DHT22;3894;49.700;10.770;2023-09-08T06:32:14;17.50;99.90
7704;DHT22;3894;49.700;10.770;2023-09-08T06:34:39;17.70;99.90
7704;DHT22;3894;49.700;10.770;2023-09-08T06:37:10;17.80;99.90
7704;DHT22;3894;49.700;10.770;2023-09-08T06:39:44;18.00;99.90
7704;DHT22;3894;49.700;10.770;2023-09-08T06:42:10;18.00;99.90
7704;DHT22;3894;49.700;10.770;2023-09-08T06:44:38;18.20;99.90
7704;DHT22;3894;49.700;10.770;2023-09-08T06:47:06;18.40;99.90
7704;DHT22;3894;49.700;10.770;2023-09-08T06:49:34;18.50;99.90
7704;DHT22;3894;49.700;10.770;2023-09-08T06:52:03;18.70;99.90
7704;DHT22;3894;49.700;10.770;2023-09-08T06:54:28;18.90;99.90
7704;DHT22;3894;49.700;10.770;2023-09-08T06:56:54;19.00;99.90
7704;DHT22;3894;49.700;10.770;2023-09-08T06:59:19;19.10;99.90
7704;DHT22;3894;49.700;10.770;2023-09-08T07:01:45;19.20;99.90
7704;DHT22;3894;49.700;10.770;2023-09-08T07:04:11;19.20;99.90
7704;DHT22;3894;49.700;10.770;2023-09-08T07:06:39;19.40;99.90
7704;DHT22;3894;49.700;10.770;2023-09-08T07:09:07;19.60;99.90
7704;DHT22;3894;49.700;10.770;2023-09-08T07:11:37;19.70;99.90
7704;DHT22;3894;49.700;10.770;2023-09-08T07:14:06;19.80;99.90
7704;DHT22;3894;49.700;10.770;2023-09-08T07:16:37;19.90;99.90
7704;DHT22;3894;49.700;10.770;2023-09-08T07:19:02;20.10;99.90
7704;DHT22;3894;49.700;10.770;2023-09-08T07:21:28;20.10;99.90
7704;DHT22;3894;49.700;10.770;2023-09-08T07:23:53;20.30;99.90
7704;DHT22;3894;49.700;10.770;2023-09-08T07:26:19;20.40;99.90
7704;DHT22;3894;49.700;10.770;2023-09-08T07:28:48;20.50;99.90
7704;DHT22;3894;49.700;10.770;2023-09-08T07:31:17;20.50;99.90
7704;DHT22;3894;49.700;10.770;2023-09-08T07:33:48;20.50;99.90
7704;DHT22;3894;49.700;10.770;2023-09-08T07:36:17;20.60;99.90
7704;DHT22;3894;49.700;10.770;2023-09-08T07:38:42;20.70;99.90
7704;DHT22;3894;49.700;10.770;2023-09-08T07:41:08;20.90;99.90
7704;DHT22;3894;49.700;10.770;2023-09-08T07:43:33;21.00;99.90
7704;DHT22;3894;49.700;10.770;2023-09-08T07:46:02;21.10;99.90
7704;DHT22;3894;49.700;10.770;2023-09-08T07:48:28;21.20;99.90
7704;DHT22;3894;49.700;10.770;2023-09-08T07:50:57;21.30;99.90
7704;DHT22;3894;49.700;10.770;2023-09-08T07:53:26;21.40;99.90
7704;DHT22;3894;49.700;10.770;2023-09-08T07:55:58;21.50;99.90
7704;DHT22;3894;49.700;10.770;2023-09-08T07:58:23;21.60;99.90
7704;DHT22;3894;49.700;10.770;2023-09-08T08:00:49;21.80;99.90
7704;DHT22;3894;49.700;10.770;2023-09-08T08:03:17;21.80;99.90
7704;DHT22;3894;49.700;10.770;2023-09-08T08:05:43;21.80;99.90
7704;DHT22;3894;49.700;10.770;2023-09-08T08:08:10;21.90;99.90
7704;DHT22;3894;49.700;10.770;2023-09-08T08:10:40;22.00;99.90
7704;DHT22;3894;49.700;10.770;2023-09-08T08:13:15;22.10;99.90
7704;DHT22;3894;49.700;10.770;2023-09-08T08:15:48;22.20;99.90
7704;DHT22;3894;49.700;10.770;2023-09-08T08:18:15;22.30;99.90
7704;DHT22;3894;49.700;10.770;2023-09-08T08:20:40;22.30;99.90
7704;DHT22;3894;49.700;10.770;2023-09-08T08:23:06;22.30;99.90
7704;DHT22;3894;49.700;10.770;2023-09-08T08:25:34;22.40;99.90
7704;DHT22;3894;49.700;10.770;2023-09-08T08:28:00;22.50;99.90
7704;DHT22;3894;49.700;10.770;2023-09-08T08:30:29;22.60;99.90
7704;DHT22;3894;49.700;10.770;2023-09-08T08:32:57;22.60;99.90
7704;DHT22;3894;49.700;10.770;2023-09-08T08:35:23;22.70;99.90
7704;DHT22;3894;49.700;10.770;2023-09-08T08:37:51;22.60;99.90
7704;DHT22;3894;49.700;10.770;2023-09-08T08:40:17;22.80;99.90
7704;DHT22;3894;49.700;10.770;2023-09-08T08:42:46;22.90;99.90
7704;DHT22;3894;49.700;10.770;2023-09-08T08:45:12;22.90;99.90
7704;DHT22;3894;49.700;10.770;2023-09-08T08:47:37;22.90;99.90
7704;DHT22;3894;49.700;10.770;2023-09-08T08:50:13;23.10;99.90
7704;DHT22;3894;49.700;10.770;2023-09-08T08:52:39;23.20;99.90
7704;DHT22;3894;49.700;10.770;2023-09-08T08:55:06;23.40;99.90
7704;DHT22;3894;49.700;10.770;2023-09-08T08:57:32;23.40;99.90
7704;DHT22;3894;49.700;10.770;2023-09-08T08:59:58;23.40;99.90
7704;DHT22;3894;49.700;10.770;2023-09-08T09:02:33;23.50;99.90
7704;DHT22;3894;49.700;10.770;2023-09-08T09:05:08;23.40;99.90
7704;DHT22;3894;49.700;10.770;2023-09-08T09:07:36;23.50;99.90
7704;DHT22;3894;49.700;10.770;2023-09-08T09:10:03;23.60;99.90
7704;DHT22;3894;49.700;10.770;2023-09-08T09:12:40;23.60;99.90
7704;DHT22;3894;49.700;10.770;2023-09-08T09:15:08;23.60;99.90
7704;DHT22;3894;49.700;10.770;2023-09-08T09:17:37;23.70;99.90
7704;DHT22;3894;49.700;10.770;2023-09-08T09:20:19;23.80;99.90
7704;DHT22;3894;49.700;10.770;2023-09-08T09:22:46;23.80;99.90
7704;DHT22;3894;49.700;10.770;2023-09-08T09:25:22;23.80;99.90
7704;DHT22;3894;49.700;10.770;2023-09-08T09:27:59;23.80;99.90
7704;DHT22;3894;49.700;10.770;2023-09-08T09:30:25;24.00;99.90
7704;DHT22;3894;49.700;10.770;2023-09-08T09:33:07;24.20;99.90
7704;DHT22;3894;49.700;10.770;2023-09-08T09:38:17;24.40;99.90
7704;DHT22;3894;49.700;10.770;2023-09-08T09:40:46;24.50;99.90
7704;DHT22;3894;49.700;10.770;2023-09-08T09:43:17;24.60;99.90
7704;DHT22;3894;49.700;10.770;2023-09-08T09:45:48;24.70;99.90
7704;DHT22;3894;49.700;10.770;2023-09-08T09:48:16;24.80;99.90
7704;DHT22;3894;49.700;10.770;2023-09-08T09:50:47;24.80;99.90
7704;DHT22;3894;49.700;10.770;2023-09-08T09:53:17;24.90;99.90
7704;DHT22;3894;49.700;10.770;2023-09-08T09:55:45;24.90;99.90
7704;DHT22;3894;49.700;10.770;2023-09-08T09:58:11;24.90;99.90
7704;DHT22;3894;49.700;10.770;2023-09-08T10:00:43;25.00;99.90
7704;DHT22;3894;49.700;10.770;2023-09-08T10:03:14;25.20;99.90
7704;DHT22;3894;49.700;10.770;2023-09-08T10:05:50;25.20;99.90
7704;DHT22;3894;49.700;10.770;2023-09-08T10:08:18;25.30;99.90
7704;DHT22;3894;49.700;10.770;2023-09-08T10:10:47;25.40;99.90
7704;DHT22;3894;49.700;10.770;2023-09-08T10:13:21;25.30;99.90
7704;DHT22;3894;49.700;10.770;2023-09-08T10:15:48;25.20;99.90
7704;DHT22;3894;49.700;10.770;2023-09-08T10:18:19;25.40;99.90
7704;DHT22;3894;49.700;10.770;2023-09-08T10:20:49;25.60;99.90
7704;DHT22;3894;49.700;10.770;2023-09-08T10:26:01;25.90;99.90
7704;DHT22;3894;49.700;10.770;2023-09-08T10:28:34;25.90;99.90
7704;DHT22;3894;49.700;10.770;2023-09-08T10:31:08;26.00;99.90
7704;DHT22;3894;49.700;10.770;2023-09-08T10:33:37;26.20;99.90
7704;DHT22;3894;49.700;10.770;2023-09-08T10:36:06;26.40;99.90
7704;DHT22;3894;49.700;10.770;2023-09-08T10:38:37;26.50;99.90
7704;DHT22;3894;49.700;10.770;2023-09-08T10:43:45;26.50;99.90
7704;DHT22;3894;49.700;10.770;2023-09-08T10:46:21;26.50;99.90
7704;DHT22;3894;49.700;10.770;2023-09-08T10:48:50;26.70;99.90
7704;DHT22;3894;49.700;10.770;2023-09-08T10:51:18;26.80;99.90
7704;DHT22;3894;49.700;10.770;2023-09-08T10:53:47;26.90;99.90
7704;DHT22;3894;49.700;10.770;2023-09-08T10:56:17;27.00;99.90
7704;DHT22;3894;49.700;10.770;2023-09-08T10:58:51;27.20;99.90
7704;DHT22;3894;49.700;10.770;2023-09-08T11:01:20;27.30;99.90
7704;DHT22;3894;49.700;10.770;2023-09-08T11:03:52;27.40;99.90
7704;DHT22;3894;49.700;10.770;2023-09-08T11:06:23;27.40;99.90
7704;DHT22;3894;49.700;10.770;2023-09-08T11:08:55;27.50;99.90
7704;DHT22;3894;49.700;10.770;2023-09-08T11:11:29;27.60;99.60
7704;DHT22;3894;49.700;10.770;2023-09-08T11:13:59;27.60;99.20
7704;DHT22;3894;49.700;10.770;2023-09-08T11:16:25;27.70;99.90
7704;DHT22;3894;49.700;10.770;2023-09-08T11:18:55;27.80;99.10
7704;DHT22;3894;49.700;10.770;2023-09-08T11:21:20;27.90;99.10
7704;DHT22;3894;49.700;10.770;2023-09-08T11:24:02;27.90;98.60
7704;DHT22;3894;49.700;10.770;2023-09-08T11:26:33;28.00;99.30
7704;DHT22;3894;49.700;10.770;2023-09-08T11:29:05;28.20;97.60
7704;DHT22;3894;49.700;10.770;2023-09-08T11:31:34;28.20;97.60
7704;DHT22;3894;49.700;10.770;2023-09-08T11:34:16;28.30;97.50
7704;DHT22;3894;49.700;10.770;2023-09-08T11:36:44;28.40;96.80
7704;DHT22;3894;49.700;10.770;2023-09-08T11:39:11;28.50;96.70
7704;DHT22;3894;49.700;10.770;2023-09-08T11:41:39;28.50;96.20
7704;DHT22;3894;49.700;10.770;2023-09-08T11:44:14;28.60;96.60
7704;DHT22;3894;49.700;10.770;2023-09-08T11:46:48;28.60;96.10
7704;DHT22;3894;49.700;10.770;2023-09-08T11:49:19;28.60;95.60
7704;DHT22;3894;49.700;10.770;2023-09-08T11:51:49;28.70;95.90
7704;DHT22;3894;49.700;10.770;2023-09-08T11:54:17;28.80;95.80
7704;DHT22;3894;49.700;10.770;2023-09-08T11:56:43;28.90;95.90
7704;DHT22;3894;49.700;10.770;2023-09-08T11:59:12;29.00;96.20
7704;DHT22;3894;49.700;10.770;2023-09-08T12:01:38;29.10;95.70
7704;DHT22;3894;49.700;10.770;2023-09-08T12:04:19;29.10;95.70
7704;DHT22;3894;49.700;10.770;2023-09-08T12:06:53;29.20;95.30
7704;DHT22;3894;49.700;10.770;2023-09-08T12:09:23;29.20;94.60
7704;DHT22;3894;49.700;10.770;2023-09-08T12:11:49;29.10;94.60
7704;DHT22;3894;49.700;10.770;2023-09-08T12:14:25;29.10;95.20
7704;DHT22;3894;49.700;10.770;2023-09-08T12:17:07;29.20;94.20
7704;DHT22;3894;49.700;10.770;2023-09-08T12:19:36;28.90;94.20
7704;DHT22;3894;49.700;10.770;2023-09-08T12:22:10;29.10;94.30
7704;DHT22;3894;49.700;10.770;2023-09-08T12:24:50;29.20;93.80
7704;DHT22;3894;49.700;10.770;2023-09-08T12:27:24;29.20;93.70
7704;DHT22;3894;49.700;10.770;2023-09-08T12:30:00;29.20;93.60
7704;DHT22;3894;49.700;10.770;2023-09-08T12:32:32;29.30;93.80
7704;DHT22;3894;49.700;10.770;2023-09-08T12:34:59;29.30;93.80
7704;DHT22;3894;49.700;10.770;2023-09-08T12:37:26;29.40;93.70
7704;DHT22;3894;49.700;10.770;2023-09-08T12:39:56;29.40;93.10
7704;DHT22;3894;49.700;10.770;2023-09-08T12:42:35;29.40;92.70
7704;DHT22;3894;49.700;10.770;2023-09-08T12:45:04;29.40;93.20
7704;DHT22;3894;49.700;10.770;2023-09-08T12:47:39;29.50;92.30
7704;DHT22;3894;49.700;10.770;2023-09-08T12:50:05;29.60;92.50
7704;DHT22;3894;49.700;10.770;2023-09-08T12:52:31;29.50;92.30
7704;DHT22;3894;49.700;10.770;2023-09-08T12:54:57;29.50;91.60
7704;DHT22;3894;49.700;10.770;2023-09-08T12:57:26;29.50;92.00
7704;DHT22;3894;49.700;10.770;2023-09-08T12:59:52;29.40;91.60
7704;DHT22;3894;49.700;10.770;2023-09-08T13:02:28;29.50;91.50
7704;DHT22;3894;49.700;10.770;2023-09-08T13:05:01;29.50;92.00
7704;DHT22;3894;49.700;10.770;2023-09-08T13:07:27;29.50;91.80
7704;DHT22;3894;49.700;10.770;2023-09-08T13:09:52;29.60;91.60
7704;DHT22;3894;49.700;10.770;2023-09-08T13:12:26;29.50;91.80
7704;DHT22;3894;49.700;10.770;2023-09-08T13:14:51;29.50;91.40
7704;DHT22;3894;49.700;10.770;2023-09-08T13:17:20;29.40;91.70
7704;DHT22;3894;49.700;10.770;2023-09-08T13:19:53;29.40;91.20
7704;DHT22;3894;49.700;10.770;2023-09-08T13:22:20;29.40;91.80
7704;DHT22;3894;49.700;10.770;2023-09-08T13:24:48;29.30;91.90
7704;DHT22;3894;49.700;10.770;2023-09-08T13:27:17;29.30;90.90
7704;DHT22;3894;49.700;10.770;2023-09-08T13:29:49;29.30;91.30
7704;DHT22;3894;49.700;10.770;2023-09-08T13:32:20;29.30;91.20
7704;DHT22;3894;49.700;10.770;2023-09-08T13:34:48;29.20;90.60
7704;DHT22;3894;49.700;10.770;2023-09-08T13:37:18;29.10;91.10
7704;DHT22;3894;49.700;10.770;2023-09-08T13:39:50;29.10;91.10
7704;DHT22;3894;49.700;10.770;2023-09-08T13:42:19;29.00;90.90
7704;DHT22;3894;49.700;10.770;2023-09-08T13:44:50;28.90;91.00
7704;DHT22;3894;49.700;10.770;2023-09-08T13:47:15;28.70;91.10
7704;DHT22;3894;49.700;10.770;2023-09-08T13:49:43;28.70;91.30
7704;DHT22;3894;49.700;10.770;2023-09-08T13:52:12;28.60;91.20
7704;DHT22;3894;49.700;10.770;2023-09-08T13:54:38;28.50;91.20
7704;DHT22;3894;49.700;10.770;2023-09-08T13:57:11;28.50;91.70
7704;DHT22;3894;49.700;10.770;2023-09-08T13:59:36;28.40;91.60
7704;DHT22;3894;49.700;10.770;2023-09-08T14:02:05;28.30;91.50
7704;DHT22;3894;49.700;10.770;2023-09-08T14:04:31;28.30;91.40
7704;DHT22;3894;49.700;10.770;2023-09-08T14:06:56;28.30;91.40
7704;DHT22;3894;49.700;10.770;2023-09-08T14:09:25;28.30;90.70
7704;DHT22;3894;49.700;10.770;2023-09-08T14:11:51;28.20;91.00
7704;DHT22;3894;49.700;10.770;2023-09-08T14:14:17;28.20;91.30
7704;DHT22;3894;49.700;10.770;2023-09-08T14:16:45;28.10;90.90
7704;DHT22;3894;49.700;10.770;2023-09-08T14:19:20;28.10;90.90
7704;DHT22;3894;49.700;10.770;2023-09-08T14:21:45;28.00;90.50
7704;DHT22;3894;49.700;10.770;2023-09-08T14:24:11;28.00;91.00
7704;DHT22;3894;49.700;10.770;2023-09-08T14:26:41;27.90;90.60
7704;DHT22;3894;49.700;10.770;2023-09-08T14:29:07;27.90;90.60
7704;DHT22;3894;49.700;10.770;2023-09-08T14:31:33;27.90;91.00
7704;DHT22;3894;49.700;10.770;2023-09-08T14:33:59;27.90;90.80
7704;DHT22;3894;49.700;10.770;2023-09-08T14:36:31;27.90;90.70
7704;DHT22;3894;49.700;10.770;2023-09-08T14:38:56;27.80;90.80
7704;DHT22;3894;49.700;10.770;2023-09-08T14:41:22;27.80;90.80
7704;DHT22;3894;49.700;10.770;2023-09-08T14:43:53;27.80;90.60
7704;DHT22;3894;49.700;10.770;2023-09-08T14:46:28;27.80;90.70
7704;DHT22;3894;49.700;10.770;2023-09-08T14:48:56;27.80;90.90
7704;DHT22;3894;49.700;10.770;2023-09-08T14:51:25;27.80;90.50
7704;DHT22;3894;49.700;10.770;2023-09-08T14:53:53;27.80;90.30
7704;DHT22;3894;49.700;10.770;2023-09-08T14:56:21;27.80;90.80
7704;DHT22;3894;49.700;10.770;2023-09-08T14:58:52;27.70;90.40
7704;DHT22;3894;49.700;10.770;2023-09-08T15:01:20;27.70;90.50
7704;DHT22;3894;49.700;10.770;2023-09-08T15:03:52;27.70;91.00
7704;DHT22;3894;49.700;10.770;2023-09-08T15:06:20;27.70;91.00
7704;DHT22;3894;49.700;10.770;2023-09-08T15:08:45;27.70;90.80
7704;DHT22;3894;49.700;10.770;2023-09-08T15:11:12;27.60;90.60
7704;DHT22;3894;49.700;10.770;2023-09-08T15:13:37;27.60;90.80
7704;DHT22;3894;49.700;10.770;2023-09-08T15:16:03;27.60;90.20
7704;DHT22;3894;49.700;10.770;2023-09-08T15:18:31;27.60;90.30
7704;DHT22;3894;49.700;10.770;2023-09-08T15:21:00;27.50;90.20
7704;DHT22;3894;49.700;10.770;2023-09-08T15:23:25;27.50;88.90
7704;DHT22;3894;49.700;10.770;2023-09-08T15:25:56;27.50;88.10
7704;DHT22;3894;49.700;10.770;2023-09-08T15:28:25;27.50;87.90
7704;DHT22;3894;49.700;10.770;2023-09-08T15:30:52;27.40;87.60
7704;DHT22;3894;49.700;10.770;2023-09-08T15:33:18;27.40;87.90
7704;DHT22;3894;49.700;10.770;2023-09-08T15:35:53;27.40;87.70
7704;DHT22;3894;49.700;10.770;2023-09-08T15:38:21;27.40;87.90
7704;DHT22;3894;49.700;10.770;2023-09-08T15:41:16;27.30;87.90
7704;DHT22;3894;49.700;10.770;2023-09-08T15:43:49;27.30;87.50
7704;DHT22;3894;49.700;10.770;2023-09-08T15:46:17;27.20;87.90
7704;DHT22;3894;49.700;10.770;2023-09-08T15:48:47;27.20;87.90
7704;DHT22;3894;49.700;10.770;2023-09-08T15:51:14;27.20;87.90
7704;DHT22;3894;49.700;10.770;2023-09-08T15:53:43;27.20;88.00
7704;DHT22;3894;49.700;10.770;2023-09-08T15:56:11;27.10;88.90
7704;DHT22;3894;49.700;10.770;2023-09-08T15:58:37;27.10;89.40
7704;DHT22;3894;49.700;10.770;2023-09-08T16:01:06;27.10;89.90
7704;DHT22;3894;49.700;10.770;2023-09-08T16:03:35;27.00;90.10
7704;DHT22;3894;49.700;10.770;2023-09-08T16:06:05;27.00;90.40
7704;DHT22;3894;49.700;10.770;2023-09-08T16:08:31;27.00;90.30
7704;DHT22;3894;49.700;10.770;2023-09-08T16:10:59;26.90;90.30